sensor_id;sensor_type;location;lat;lon;timestamp;P1;durP1;ratioP1;P2;durP2;ratioP2
50549;SDS011;36505;52.512;13.460;2023-03-19T00:01:24;18.38;;;10.15;;
50549;SDS011;36505;52.512;13.460;2023-03-19T00:03:50;16.75;;;10.13;;
50549;SDS011;36505;52.512;13.460;2023-03-19T00:06:16;20.45;;;11.20;;
50549;SDS011;36505;52.512;13.460;2023-03-19T00:08:41;22.55;;;10.80;;
50549;SDS011;36505;52.512;13.460;2023-03-19T00:11:08;22.70;;;10.88;;
50549;SDS011;36505;52.512;13.460;2023-03-19T00:13:35;23.73;;;12.27;;
50549;SDS011;36505;52.512;13.460;2023-03-19T00:16:00;22.17;;;11.75;;
50549;SDS011;36505;52.512;13.460;2023-03-19T00:18:26;21.55;;;11.20;;
50549;SDS011;36505;52.512;13.460;2023-03-19T00:20:52;22.88;;;11.55;;
50549;SDS011;36505;52.512;13.460;2023-03-19T00:23:17;20.40;;;11.25;;
50549;SDS011;36505;52.512;13.460;2023-03-19T00:25:42;24.15;;;12.57;;
50549;SDS011;36505;52.512;13.460;2023-03-19T00:28:08;20.45;;;10.73;;
50549;SDS011;36505;52.512;13.460;2023-03-19T00:30:34;25.90;;;11.80;;
50549;SDS011;36505;52.512;13.460;2023-03-19T00:32:59;22.25;;;11.23;;
50549;SDS011;36505;52.512;13.460;2023-03-19T00:35:25;28.02;;;11.88;;
50549;SDS011;36505;52.512;13.460;2023-03-19T00:37:51;23.00;;;11.20;;
50549;SDS011;36505;52.512;13.460;2023-03-19T00:40:16;23.02;;;11.27;;
50549;SDS011;36505;52.512;13.460;2023-03-19T00:42:42;28.02;;;11.02;;
50549;SDS011;36505;52.512;13.460;2023-03-19T00:45:09;21.75;;;10.85;;
50549;SDS011;36505;52.512;13.460;2023-03-19T00:47:35;23.08;;;11.55;;
50549;SDS011;36505;52.512;13.460;2023-03-19T00:50:01;21.63;;;10.70;;
50549;SDS011;36505;52.512;13.460;2023-03-19T00:52:27;18.02;;;10.23;;
50549;SDS011;36505;52.512;13.460;2023-03-19T00:54:52;21.33;;;11.82;;
50549;SDS011;36505;52.512;13.460;2023-03-19T00:57:17;24.50;;;11.70;;
50549;SDS011;36505;52.512;13.460;2023-03-19T00:59:43;22.00;;;10.20;;
50549;SDS011;36505;52.512;13.460;2023-03-19T01:02:08;19.20;;;10.48;;
50549;SDS011;36505;52.512;13.460;2023-03-19T01:04:33;24.52;;;11.60;;
50549;SDS011;36505;52.512;13.460;2023-03-19T01:06:59;22.58;;;10.68;;
50549;SDS011;36505;52.512;13.460;2023-03-19T01:09:25;20.45;;;10.25;;
50549;SDS011;36505;52.512;13.460;2023-03-19T01:11:51;21.25;;;10.75;;
50549;SDS011;36505;52.512;13.460;2023-03-19T01:14:16;22.80;;;11.07;;
50549;SDS011;36505;52.512;13.460;2023-03-19T01:16:41;23.13;;;10.52;;
50549;SDS011;36505;52.512;13.460;2023-03-19T01:19:07;20.08;;;10.32;;
50549;SDS011;36505;52.512;13.460;2023-03-19T01:21:32;16.92;;;10.32;;
50549;SDS011;36505;52.512;13.460;2023-03-19T01:23:59;17.50;;;10.02;;
50549;SDS011;36505;52.512;13.460;2023-03-19T01:26:24;16.95;;;9.60;;
50549;SDS011;36505;52.512;13.460;2023-03-19T01:28:51;19.95;;;10.27;;
50549;SDS011;36505;52.512;13.460;2023-03-19T01:31:16;22.63;;;11.15;;
50549;SDS011;36505;52.512;13.460;2023-03-19T01:33:42;21.70;;;10.13;;
50549;SDS011;36505;52.512;13.460;2023-03-19T01:36:08;20.73;;;10.50;;
50549;SDS011;36505;52.512;13.460;2023-03-19T01:38:34;21.67;;;10.40;;
50549;SDS011;36505;52.512;13.460;2023-03-19T01:40:59;21.33;;;9.82;;
50549;SDS011;36505;52.512;13.460;2023-03-19T01:43:27;19.02;;;9.88;;
50549;SDS011;36505;52.512;13.460;2023-03-19T01:46:38;14.63;;;9.18;;
50549;SDS011;36505;52.512;13.460;2023-03-19T01:48:40;20.67;;;9.40;;
50549;SDS011;36505;52.512;13.460;2023-03-19T01:51:11;20.20;;;9.95;;
50549;SDS011;36505;52.512;13.460;2023-03-19T01:53:40;27.67;;;10.93;;
50549;SDS011;36505;52.512;13.460;2023-03-19T01:56:11;18.05;;;10.15;;
50549;SDS011;36505;52.512;13.460;2023-03-19T01:58:39;18.13;;;10.43;;
50549;SDS011;36505;52.512;13.460;2023-03-19T02:01:07;19.58;;;10.90;;
50549;SDS011;36505;52.512;13.460;2023-03-19T02:03:33;21.63;;;10.32;;
50549;SDS011;36505;52.512;13.460;2023-03-19T02:05:59;17.98;;;9.27;;
50549;SDS011;36505;52.512;13.460;2023-03-19T02:08:25;24.13;;;11.60;;
50549;SDS011;36505;52.512;13.460;2023-03-19T02:10:52;20.85;;;10.07;;
50549;SDS011;36505;52.512;13.460;2023-03-19T02:13:20;18.67;;;10.05;;
50549;SDS011;36505;52.512;13.460;2023-03-19T02:15:47;13.90;;;8.50;;
50549;SDS011;36505;52.512;13.460;2023-03-19T02:18:13;19.20;;;9.40;;
50549;SDS011;36505;52.512;13.460;2023-03-19T02:28:18;20.00;;;9.07;;
50549;SDS011;36505;52.512;13.460;2023-03-19T02:30:46;17.63;;;10.77;;
50549;SDS011;36505;52.512;13.460;2023-03-19T02:33:13;20.40;;;9.80;;
50549;SDS011;36505;52.512;13.460;2023-03-19T02:35:41;20.83;;;10.13;;
50549;SDS011;36505;52.512;13.460;2023-03-19T02:38:10;17.95;;;9.35;;
50549;SDS011;36505;52.512;13.460;2023-03-19T02:40:38;18.67;;;9.77;;
50549;SDS011;36505;52.512;13.460;2023-03-19T02:43:16;14.70;;;9.05;;
50549;SDS011;36505;52.512;13.460;2023-03-19T02:45:41;19.38;;;9.90;;
50549;SDS011;36505;52.512;13.460;2023-03-19T02:48:07;17.08;;;9.65;;
50549;SDS011;36505;52.512;13.460;2023-03-19T02:50:32;23.02;;;10.52;;
50549;SDS011;36505;52.512;13.460;2023-03-19T02:52:58;23.75;;;10.48;;
50549;SDS011;36505;52.512;13.460;2023-03-19T02:55:23;23.83;;;10.55;;
50549;SDS011;36505;52.512;13.460;2023-03-19T02:57:48;18.80;;;10.00;;
50549;SDS011;36505;52.512;13.460;2023-03-19T03:00:15;17.88;;;9.85;;
50549;SDS011;36505;52.512;13.460;2023-03-19T03:02:44;21.25;;;10.32;;
50549;SDS011;36505;52.512;13.460;2023-03-19T03:05:10;18.48;;;9.73;;
50549;SDS011;36505;52.512;13.460;2023-03-19T03:07:37;20.67;;;9.27;;
50549;SDS011;36505;52.512;13.460;2023-03-19T03:10:04;21.73;;;10.10;;
50549;SDS011;36505;52.512;13.460;2023-03-19T03:12:30;18.80;;;10.07;;
50549;SDS011;36505;52.512;13.460;2023-03-19T03:14:56;21.40;;;9.70;;
50549;SDS011;36505;52.512;13.460;2023-03-19T03:17:21;20.48;;;11.15;;
50549;SDS011;36505;52.512;13.460;2023-03-19T03:19:47;19.65;;;9.77;;
50549;SDS011;36505;52.512;13.460;2023-03-19T03:22:12;19.23;;;10.73;;
50549;SDS011;36505;52.512;13.460;2023-03-19T03:24:37;17.38;;;10.07;;
50549;SDS011;36505;52.512;13.460;2023-03-19T03:27:03;15.77;;;9.98;;
50549;SDS011;36505;52.512;13.460;2023-03-19T03:29:29;18.15;;;9.93;;
50549;SDS011;36505;52.512;13.460;2023-03-19T03:31:54;18.40;;;9.68;;
50549;SDS011;36505;52.512;13.460;2023-03-19T03:34:19;17.27;;;10.10;;
50549;SDS011;36505;52.512;13.460;2023-03-19T03:36:45;26.08;;;9.85;;
50549;SDS011;36505;52.512;13.460;2023-03-19T03:39:11;19.60;;;10.60;;
50549;SDS011;36505;52.512;13.460;2023-03-19T03:41:36;18.80;;;9.77;;
50549;SDS011;36505;52.512;13.460;2023-03-19T03:44:02;18.63;;;10.02;;
50549;SDS011;36505;52.512;13.460;2023-03-19T03:46:28;18.70;;;10.52;;
50549;SDS011;36505;52.512;13.460;2023-03-19T03:48:53;20.45;;;9.82;;
50549;SDS011;36505;52.512;13.460;2023-03-19T03:51:19;17.48;;;9.65;;
50549;SDS011;36505;52.512;13.460;2023-03-19T03:53:44;19.33;;;9.43;;
50549;SDS011;36505;52.512;13.460;2023-03-19T03:56:10;21.05;;;10.20;;
50549;SDS011;36505;52.512;13.460;2023-03-19T03:58:35;18.70;;;9.70;;
50549;SDS011;36505;52.512;13.460;2023-03-19T04:01:01;19.48;;;10.60;;
50549;SDS011;36505;52.512;13.460;2023-03-19T04:03:27;18.38;;;10.45;;
50549;SDS011;36505;52.512;13.460;2023-03-19T04:05:53;22.40;;;10.88;;
50549;SDS011;36505;52.512;13.460;2023-03-19T04:08:18;18.70;;;9.98;;
50549;SDS011;36505;52.512;13.460;2023-03-19T04:10:44;20.00;;;9.75;;
50549;SDS011;36505;52.512;13.460;2023-03-19T04:13:09;18.60;;;9.75;;
50549;SDS011;36505;52.512;13.460;2023-03-19T04:15:36;19.40;;;10.43;;
50549;SDS011;36505;52.512;13.460;2023-03-19T04:18:02;18.10;;;10.23;;
50549;SDS011;36505;52.512;13.460;2023-03-19T04:20:28;22.63;;;10.63;;
50549;SDS011;36505;52.512;13.460;2023-03-19T04:22:54;17.05;;;10.32;;
50549;SDS011;36505;52.512;13.460;2023-03-19T04:25:19;23.90;;;10.45;;
50549;SDS011;36505;52.512;13.460;2023-03-19T04:27:45;21.60;;;10.00;;
50549;SDS011;36505;52.512;13.460;2023-03-19T04:30:11;23.70;;;9.90;;
50549;SDS011;36505;52.512;13.460;2023-03-19T04:32:37;18.98;;;10.73;;
50549;SDS011;36505;52.512;13.460;2023-03-19T04:35:02;18.50;;;10.20;;
50549;SDS011;36505;52.512;13.460;2023-03-19T04:37:28;18.92;;;10.80;;
50549;SDS011;36505;52.512;13.460;2023-03-19T04:39:53;19.67;;;10.02;;
50549;SDS011;36505;52.512;13.460;2023-03-19T04:42:19;20.73;;;9.93;;
50549;SDS011;36505;52.512;13.460;2023-03-19T04:44:45;16.80;;;10.40;;
50549;SDS011;36505;52.512;13.460;2023-03-19T04:47:10;22.00;;;10.40;;
50549;SDS011;36505;52.512;13.460;2023-03-19T04:49:36;16.92;;;9.02;;
50549;SDS011;36505;52.512;13.460;2023-03-19T04:52:02;18.73;;;10.30;;
50549;SDS011;36505;52.512;13.460;2023-03-19T04:54:28;20.20;;;10.95;;
50549;SDS011;36505;52.512;13.460;2023-03-19T04:56:53;18.63;;;10.55;;
50549;SDS011;36505;52.512;13.460;2023-03-19T04:59:19;18.55;;;10.00;;
50549;SDS011;36505;52.512;13.460;2023-03-19T05:01:44;20.92;;;9.85;;
50549;SDS011;36505;52.512;13.460;2023-03-19T05:04:10;20.27;;;10.30;;
50549;SDS011;36505;52.512;13.460;2023-03-19T05:06:36;20.73;;;11.90;;
50549;SDS011;36505;52.512;13.460;2023-03-19T05:09:02;22.00;;;10.45;;
50549;SDS011;36505;52.512;13.460;2023-03-19T05:11:29;18.48;;;10.43;;
50549;SDS011;36505;52.512;13.460;2023-03-19T05:13:54;19.73;;;10.82;;
50549;SDS011;36505;52.512;13.460;2023-03-19T05:16:19;20.95;;;11.00;;
50549;SDS011;36505;52.512;13.460;2023-03-19T05:18:45;17.25;;;10.32;;
50549;SDS011;36505;52.512;13.460;2023-03-19T05:21:11;20.10;;;10.85;;
50549;SDS011;36505;52.512;13.460;2023-03-19T05:23:38;18.60;;;10.65;;
50549;SDS011;36505;52.512;13.460;2023-03-19T05:26:03;26.20;;;11.73;;
50549;SDS011;36505;52.512;13.460;2023-03-19T05:28:30;25.27;;;11.80;;
50549;SDS011;36505;52.512;13.460;2023-03-19T05:30:56;20.77;;;11.15;;
50549;SDS011;36505;52.512;13.460;2023-03-19T05:33:21;22.73;;;12.35;;
50549;SDS011;36505;52.512;13.460;2023-03-19T05:35:47;21.75;;;12.40;;
50549;SDS011;36505;52.512;13.460;2023-03-19T05:38:13;25.58;;;12.80;;
50549;SDS011;36505;52.512;13.460;2023-03-19T05:40:39;26.90;;;12.93;;
50549;SDS011;36505;52.512;13.460;2023-03-19T05:43:08;26.02;;;12.85;;
50549;SDS011;36505;52.512;13.460;2023-03-19T05:45:34;23.92;;;12.43;;
50549;SDS011;36505;52.512;13.460;2023-03-19T05:48:00;19.13;;;11.65;;
50549;SDS011;36505;52.512;13.460;2023-03-19T05:50:27;23.58;;;12.82;;
50549;SDS011;36505;52.512;13.460;2023-03-19T05:52:52;21.23;;;11.68;;
50549;SDS011;36505;52.512;13.460;2023-03-19T05:55:18;23.45;;;12.80;;
50549;SDS011;36505;52.512;13.460;2023-03-19T05:57:43;19.67;;;11.55;;
50549;SDS011;36505;52.512;13.460;2023-03-19T06:00:09;18.98;;;11.35;;
50549;SDS011;36505;52.512;13.460;2023-03-19T06:02:35;20.15;;;11.25;;
50549;SDS011;36505;52.512;13.460;2023-03-19T06:05:01;20.17;;;10.88;;
50549;SDS011;36505;52.512;13.460;2023-03-19T06:07:27;20.35;;;10.50;;
50549;SDS011;36505;52.512;13.460;2023-03-19T06:09:52;25.52;;;12.15;;
50549;SDS011;36505;52.512;13.460;2023-03-19T06:12:18;20.30;;;12.25;;
50549;SDS011;36505;52.512;13.460;2023-03-19T06:14:43;22.52;;;10.50;;
50549;SDS011;36505;52.512;13.460;2023-03-19T06:17:11;21.15;;;12.18;;
50549;SDS011;36505;52.512;13.460;2023-03-19T06:19:36;21.10;;;11.50;;
50549;SDS011;36505;52.512;13.460;2023-03-19T06:22:01;21.52;;;10.75;;
50549;SDS011;36505;52.512;13.460;2023-03-19T06:24:27;20.15;;;11.77;;
50549;SDS011;36505;52.512;13.460;2023-03-19T06:26:54;17.88;;;11.40;;
50549;SDS011;36505;52.512;13.460;2023-03-19T06:29:20;17.02;;;10.85;;
50549;SDS011;36505;52.512;13.460;2023-03-19T06:31:45;19.10;;;11.45;;
50549;SDS011;36505;52.512;13.460;2023-03-19T06:34:10;20.73;;;11.32;;
50549;SDS011;36505;52.512;13.460;2023-03-19T06:36:36;17.85;;;9.93;;
50549;SDS011;36505;52.512;13.460;2023-03-19T06:39:01;22.42;;;10.70;;
50549;SDS011;36505;52.512;13.460;2023-03-19T06:41:27;16.88;;;10.25;;
50549;SDS011;36505;52.512;13.460;2023-03-19T06:43:52;18.75;;;10.75;;
50549;SDS011;36505;52.512;13.460;2023-03-19T06:46:17;21.50;;;10.30;;
50549;SDS011;36505;52.512;13.460;2023-03-19T06:48:43;24.52;;;11.20;;
50549;SDS011;36505;52.512;13.460;2023-03-19T06:51:08;24.95;;;12.00;;
50549;SDS011;36505;52.512;13.460;2023-03-19T06:53:33;17.63;;;10.73;;
50549;SDS011;36505;52.512;13.460;2023-03-19T06:55:59;17.80;;;9.93;;
50549;SDS011;36505;52.512;13.460;2023-03-19T06:58:25;17.30;;;11.20;;
50549;SDS011;36505;52.512;13.460;2023-03-19T07:00:51;21.10;;;11.02;;
50549;SDS011;36505;52.512;13.460;2023-03-19T07:03:16;22.95;;;10.57;;
50549;SDS011;36505;52.512;13.460;2023-03-19T07:05:41;24.23;;;12.98;;
50549;SDS011;36505;52.512;13.460;2023-03-19T07:08:07;30.23;;;12.55;;
50549;SDS011;36505;52.512;13.460;2023-03-19T07:10:36;22.40;;;11.43;;
50549;SDS011;36505;52.512;13.460;2023-03-19T07:13:03;20.08;;;11.23;;
50549;SDS011;36505;52.512;13.460;2023-03-19T07:15:29;26.70;;;13.98;;
50549;SDS011;36505;52.512;13.460;2023-03-19T07:17:54;26.45;;;11.50;;
50549;SDS011;36505;52.512;13.460;2023-03-19T07:20:21;23.13;;;11.95;;
50549;SDS011;36505;52.512;13.460;2023-03-19T07:22:48;18.42;;;11.18;;
50549;SDS011;36505;52.512;13.460;2023-03-19T07:25:14;18.15;;;10.30;;
50549;SDS011;36505;52.512;13.460;2023-03-19T07:27:40;21.98;;;12.02;;
50549;SDS011;36505;52.512;13.460;2023-03-19T07:30:06;17.48;;;10.93;;
50549;SDS011;36505;52.512;13.460;2023-03-19T07:32:32;19.92;;;11.30;;
50549;SDS011;36505;52.512;13.460;2023-03-19T07:34:57;20.40;;;12.10;;
50549;SDS011;36505;52.512;13.460;2023-03-19T07:37:24;24.70;;;11.93;;
50549;SDS011;36505;52.512;13.460;2023-03-19T07:39:49;25.48;;;13.85;;
50549;SDS011;36505;52.512;13.460;2023-03-19T07:42:15;19.13;;;11.70;;
50549;SDS011;36505;52.512;13.460;2023-03-19T07:44:40;23.65;;;12.10;;
50549;SDS011;36505;52.512;13.460;2023-03-19T07:47:05;20.65;;;12.45;;
50549;SDS011;36505;52.512;13.460;2023-03-19T07:49:31;20.17;;;11.80;;
50549;SDS011;36505;52.512;13.460;2023-03-19T07:51:56;18.48;;;11.52;;
50549;SDS011;36505;52.512;13.460;2023-03-19T07:54:23;26.67;;;12.50;;
50549;SDS011;36505;52.512;13.460;2023-03-19T07:56:48;17.88;;;11.68;;
50549;SDS011;36505;52.512;13.460;2023-03-19T07:59:14;18.15;;;11.50;;
50549;SDS011;36505;52.512;13.460;2023-03-19T08:01:39;18.17;;;11.07;;
50549;SDS011;36505;52.512;13.460;2023-03-19T08:04:05;18.48;;;10.55;;
50549;SDS011;36505;52.512;13.460;2023-03-19T08:06:30;20.45;;;11.00;;
50549;SDS011;36505;52.512;13.460;2023-03-19T08:08:56;19.38;;;10.68;;
50549;SDS011;36505;52.512;13.460;2023-03-19T08:11:22;16.30;;;9.85;;
50549;SDS011;36505;52.512;13.460;2023-03-19T08:13:47;20.52;;;10.40;;
50549;SDS011;36505;52.512;13.460;2023-03-19T08:16:12;13.98;;;9.50;;
50549;SDS011;36505;52.512;13.460;2023-03-19T08:18:38;18.45;;;10.73;;
50549;SDS011;36505;52.512;13.460;2023-03-19T08:21:03;16.17;;;10.45;;
50549;SDS011;36505;52.512;13.460;2023-03-19T08:23:29;18.17;;;10.45;;
50549;SDS011;36505;52.512;13.460;2023-03-19T08:25:56;15.23;;;10.02;;
50549;SDS011;36505;52.512;13.460;2023-03-19T08:28:22;14.07;;;9.98;;
50549;SDS011;36505;52.512;13.460;2023-03-19T08:30:47;13.45;;;8.68;;
50549;SDS011;36505;52.512;13.460;2023-03-19T08:33:13;16.88;;;9.63;;
50549;SDS011;36505;52.512;13.460;2023-03-19T08:35:39;14.15;;;9.48;;
50549;SDS011;36505;52.512;13.460;2023-03-19T08:38:04;16.05;;;9.43;;
50549;SDS011;36505;52.512;13.460;2023-03-19T08:40:30;15.25;;;8.90;;
50549;SDS011;36505;52.512;13.460;2023-03-19T08:42:55;19.05;;;9.02;;
50549;SDS011;36505;52.512;13.460;2023-03-19T08:45:21;17.48;;;10.13;;
50549;SDS011;36505;52.512;13.460;2023-03-19T08:47:47;20.17;;;9.27;;
50549;SDS011;36505;52.512;13.460;2023-03-19T08:50:13;15.73;;;10.00;;
50549;SDS011;36505;52.512;13.460;2023-03-19T08:52:39;24.30;;;10.85;;
50549;SDS011;36505;52.512;13.460;2023-03-19T08:55:05;15.23;;;10.38;;
50549;SDS011;36505;52.512;13.460;2023-03-19T08:57:32;20.98;;;10.38;;
50549;SDS011;36505;52.512;13.460;2023-03-19T08:59:58;14.98;;;10.00;;
50549;SDS011;36505;52.512;13.460;2023-03-19T09:02:24;15.55;;;9.48;;
50549;SDS011;36505;52.512;13.460;2023-03-19T09:04:49;19.67;;;10.48;;
50549;SDS011;36505;52.512;13.460;2023-03-19T09:07:15;20.33;;;10.07;;
50549;SDS011;36505;52.512;13.460;2023-03-19T09:09:41;22.00;;;10.52;;
50549;SDS011;36505;52.512;13.460;2023-03-19T09:12:08;20.40;;;10.55;;
50549;SDS011;36505;52.512;13.460;2023-03-19T09:14:39;18.92;;;10.77;;
50549;SDS011;36505;52.512;13.460;2023-03-19T09:17:04;17.85;;;11.18;;
50549;SDS011;36505;52.512;13.460;2023-03-19T09:19:31;24.05;;;11.25;;
50549;SDS011;36505;52.512;13.460;2023-03-19T09:21:57;18.35;;;10.55;;
50549;SDS011;36505;52.512;13.460;2023-03-19T09:24:22;17.17;;;10.45;;
50549;SDS011;36505;52.512;13.460;2023-03-19T09:26:48;17.65;;;11.23;;
50549;SDS011;36505;52.512;13.460;2023-03-19T09:29:14;16.75;;;9.98;;
50549;SDS011;36505;52.512;13.460;2023-03-19T09:31:40;19.88;;;10.98;;
50549;SDS011;36505;52.512;13.460;2023-03-19T09:34:06;17.67;;;10.35;;
50549;SDS011;36505;52.512;13.460;2023-03-19T09:36:32;19.00;;;11.20;;
50549;SDS011;36505;52.512;13.460;2023-03-19T09:38:59;22.33;;;10.85;;
50549;SDS011;36505;52.512;13.460;2023-03-19T09:41:35;17.13;;;9.80;;
50549;SDS011;36505;52.512;13.460;2023-03-19T09:44:15;19.05;;;11.68;;
50549;SDS011;36505;52.512;13.460;2023-03-19T09:46:58;19.13;;;10.95;;
50549;SDS011;36505;52.512;13.460;2023-03-19T09:49:31;18.30;;;10.73;;
50549;SDS011;36505;52.512;13.460;2023-03-19T09:58:15;17.08;;;9.70;;
50549;SDS011;36505;52.512;13.460;2023-03-19T10:00:46;19.75;;;11.38;;
50549;SDS011;36505;52.512;13.460;2023-03-19T10:17:01;17.08;;;10.77;;
50549;SDS011;36505;52.512;13.460;2023-03-19T10:19:37;22.17;;;11.30;;
50549;SDS011;36505;52.512;13.460;2023-03-19T10:22:09;17.88;;;10.82;;
50549;SDS011;36505;52.512;13.460;2023-03-19T10:24:40;15.57;;;9.82;;
50549;SDS011;36505;52.512;13.460;2023-03-19T10:27:15;22.90;;;10.50;;
50549;SDS011;36505;52.512;13.460;2023-03-19T10:29:43;22.55;;;12.35;;
50549;SDS011;36505;52.512;13.460;2023-03-19T10:34:47;21.80;;;11.27;;
50549;SDS011;36505;52.512;13.460;2023-03-19T10:39:45;17.40;;;10.38;;
50549;SDS011;36505;52.512;13.460;2023-03-19T10:47:34;21.60;;;10.80;;
50549;SDS011;36505;52.512;13.460;2023-03-19T10:50:03;15.23;;;9.75;;
50549;SDS011;36505;52.512;13.460;2023-03-19T10:52:30;13.85;;;8.68;;
50549;SDS011;36505;52.512;13.460;2023-03-19T10:55:06;14.05;;;8.85;;
50549;SDS011;36505;52.512;13.460;2023-03-19T10:57:40;18.77;;;10.43;;
50549;SDS011;36505;52.512;13.460;2023-03-19T11:00:17;15.43;;;9.77;;
50549;SDS011;36505;52.512;13.460;2023-03-19T11:02:50;21.20;;;9.20;;
50549;SDS011;36505;52.512;13.460;2023-03-19T11:05:25;17.27;;;9.02;;
50549;SDS011;36505;52.512;13.460;2023-03-19T11:07:56;13.65;;;8.50;;
50549;SDS011;36505;52.512;13.460;2023-03-19T11:10:27;14.32;;;8.45;;
50549;SDS011;36505;52.512;13.460;2023-03-19T11:12:56;15.60;;;9.07;;
50549;SDS011;36505;52.512;13.460;2023-03-19T11:15:41;12.82;;;8.57;;
50549;SDS011;36505;52.512;13.460;2023-03-19T11:18:23;12.48;;;8.07;;
50549;SDS011;36505;52.512;13.460;2023-03-19T11:23:36;15.25;;;8.63;;
50549;SDS011;36505;52.512;13.460;2023-03-19T11:26:04;16.05;;;8.40;;
50549;SDS011;36505;52.512;13.460;2023-03-19T11:28:30;16.20;;;7.55;;
50549;SDS011;36505;52.512;13.460;2023-03-19T11:36:38;13.98;;;8.05;;
50549;SDS011;36505;52.512;13.460;2023-03-19T11:39:26;11.82;;;6.78;;
50549;SDS011;36505;52.512;13.460;2023-03-19T11:55:53;9.20;;;6.68;;
50549;SDS011;36505;52.512;13.460;2023-03-19T11:58:41;11.18;;;6.82;;
50549;SDS011;36505;52.512;13.460;2023-03-19T12:06:48;10.25;;;6.72;;
50549;SDS011;36505;52.512;13.460;2023-03-19T12:34:40;10.85;;;6.50;;
50549;SDS011;36505;52.512;13.460;2023-03-19T12:39:47;10.70;;;7.57;;
50549;SDS011;36505;52.512;13.460;2023-03-19T12:42:18;11.90;;;6.70;;
50549;SDS011;36505;52.512;13.460;2023-03-19T12:44:47;9.82;;;6.68;;
50549;SDS011;36505;52.512;13.460;2023-03-19T12:47:22;12.70;;;6.82;;
50549;SDS011;36505;52.512;13.460;2023-03-19T12:49:54;13.10;;;6.38;;
50549;SDS011;36505;52.512;13.460;2023-03-19T12:52:30;11.57;;;6.72;;
50549;SDS011;36505;52.512;13.460;2023-03-19T12:55:26;11.45;;;6.75;;
50549;SDS011;36505;52.512;13.460;2023-03-19T13:00:46;12.93;;;7.00;;
50549;SDS011;36505;52.512;13.460;2023-03-19T13:03:22;14.43;;;7.55;;
50549;SDS011;36505;52.512;13.460;2023-03-19T13:06:04;13.05;;;7.03;;
50549;SDS011;36505;52.512;13.460;2023-03-19T13:17:06;9.02;;;6.38;;
50549;SDS011;36505;52.512;13.460;2023-03-19T13:19:43;14.35;;;7.40;;
50549;SDS011;36505;52.512;13.460;2023-03-19T13:22:13;11.48;;;6.72;;
50549;SDS011;36505;52.512;13.460;2023-03-19T13:24:43;11.38;;;6.80;;
50549;SDS011;36505;52.512;13.460;2023-03-19T13:27:12;12.57;;;6.78;;
50549;SDS011;36505;52.512;13.460;2023-03-19T13:32:40;11.43;;;7.80;;
50549;SDS011;36505;52.512;13.460;2023-03-19T13:37:40;12.77;;;7.60;;
50549;SDS011;36505;52.512;13.460;2023-03-19T13:40:34;13.55;;;8.43;;
50549;SDS011;36505;52.512;13.460;2023-03-19T13:46:03;13.45;;;6.78;;
50549;SDS011;36505;52.512;13.460;2023-03-19T13:56:17;11.05;;;6.25;;
50549;SDS011;36505;52.512;13.460;2023-03-19T14:11:52;10.43;;;5.95;;
50549;SDS011;36505;52.512;13.460;2023-03-19T14:14:18;10.40;;;5.88;;
50549;SDS011;36505;52.512;13.460;2023-03-19T14:16:48;9.30;;;5.70;;
50549;SDS011;36505;52.512;13.460;2023-03-19T14:19:17;16.00;;;6.43;;
50549;SDS011;36505;52.512;13.460;2023-03-19T14:21:59;8.82;;;5.68;;
50549;SDS011;36505;52.512;13.460;2023-03-19T14:24:37;8.68;;;5.47;;
50549;SDS011;36505;52.512;13.460;2023-03-19T14:27:20;7.90;;;5.10;;
50549;SDS011;36505;52.512;13.460;2023-03-19T14:29:56;8.38;;;5.35;;
50549;SDS011;36505;52.512;13.460;2023-03-19T14:32:36;9.45;;;5.70;;
50549;SDS011;36505;52.512;13.460;2023-03-19T14:35:06;10.60;;;4.85;;
50549;SDS011;36505;52.512;13.460;2023-03-19T14:40:11;9.98;;;5.70;;
50549;SDS011;36505;52.512;13.460;2023-03-19T14:43:02;16.63;;;5.70;;
50549;SDS011;36505;52.512;13.460;2023-03-19T14:46:27;9.90;;;5.32;;
50549;SDS011;36505;52.512;13.460;2023-03-19T14:51:35;9.45;;;4.78;;
50549;SDS011;36505;52.512;13.460;2023-03-19T14:54:27;10.43;;;4.80;;
50549;SDS011;36505;52.512;13.460;2023-03-19T14:57:04;10.32;;;5.15;;
50549;SDS011;36505;52.512;13.460;2023-03-19T14:59:39;7.50;;;4.22;;
50549;SDS011;36505;52.512;13.460;2023-03-19T15:02:14;13.23;;;5.75;;
50549;SDS011;36505;52.512;13.460;2023-03-19T15:04:45;9.85;;;4.90;;
50549;SDS011;36505;52.512;13.460;2023-03-19T15:07:19;14.63;;;6.65;;
50549;SDS011;36505;52.512;13.460;2023-03-19T15:09:52;11.90;;;5.70;;
50549;SDS011;36505;52.512;13.460;2023-03-19T15:17:46;9.32;;;4.50;;
50549;SDS011;36505;52.512;13.460;2023-03-19T15:23:01;15.70;;;7.30;;
50549;SDS011;36505;52.512;13.460;2023-03-19T15:25:30;14.93;;;5.63;;
50549;SDS011;36505;52.512;13.460;2023-03-19T15:30:31;11.07;;;5.32;;
50549;SDS011;36505;52.512;13.460;2023-03-19T15:32:57;9.55;;;5.78;;
50549;SDS011;36505;52.512;13.460;2023-03-19T15:35:23;11.73;;;5.75;;
50549;SDS011;36505;52.512;13.460;2023-03-19T15:37:54;11.88;;;5.35;;
50549;SDS011;36505;52.512;13.460;2023-03-19T15:40:24;12.90;;;5.88;;
50549;SDS011;36505;52.512;13.460;2023-03-19T15:42:55;8.50;;;5.80;;
50549;SDS011;36505;52.512;13.460;2023-03-19T15:45:24;10.32;;;6.25;;
50549;SDS011;36505;52.512;13.460;2023-03-19T15:50:19;13.85;;;6.18;;
50549;SDS011;36505;52.512;13.460;2023-03-19T15:52:49;9.85;;;5.60;;
50549;SDS011;36505;52.512;13.460;2023-03-19T15:55:20;11.70;;;5.90;;
50549;SDS011;36505;52.512;13.460;2023-03-19T15:57:47;10.25;;;5.70;;
50549;SDS011;36505;52.512;13.460;2023-03-19T16:00:13;9.50;;;5.82;;
50549;SDS011;36505;52.512;13.460;2023-03-19T16:02:40;10.63;;;5.97;;
50549;SDS011;36505;52.512;13.460;2023-03-19T16:05:21;9.60;;;5.97;;
50549;SDS011;36505;52.512;13.460;2023-03-19T16:07:49;13.82;;;5.80;;
50549;SDS011;36505;52.512;13.460;2023-03-19T16:10:33;9.07;;;5.47;;
50549;SDS011;36505;52.512;13.460;2023-03-19T16:12:59;11.80;;;5.50;;
50549;SDS011;36505;52.512;13.460;2023-03-19T16:20:46;14.27;;;8.02;;
50549;SDS011;36505;52.512;13.460;2023-03-19T16:23:21;15.20;;;7.47;;
50549;SDS011;36505;52.512;13.460;2023-03-19T16:25:52;11.82;;;6.45;;
50549;SDS011;36505;52.512;13.460;2023-03-19T16:28:19;10.32;;;6.18;;
50549;SDS011;36505;52.512;13.460;2023-03-19T16:30:47;13.15;;;7.65;;
50549;SDS011;36505;52.512;13.460;2023-03-19T16:33:14;12.95;;;7.45;;
50549;SDS011;36505;52.512;13.460;2023-03-19T16:35:40;11.63;;;7.68;;
50549;SDS011;36505;52.512;13.460;2023-03-19T16:38:24;17.48;;;8.32;;
50549;SDS011;36505;52.512;13.460;2023-03-19T16:43:42;13.45;;;8.50;;
50549;SDS011;36505;52.512;13.460;2023-03-19T16:46:10;18.55;;;9.68;;
50549;SDS011;36505;52.512;13.460;2023-03-19T16:48:39;15.82;;;8.13;;
50549;SDS011;36505;52.512;13.460;2023-03-19T16:51:12;14.05;;;7.50;;
50549;SDS011;36505;52.512;13.460;2023-03-19T16:53:39;15.32;;;7.85;;
50549;SDS011;36505;52.512;13.460;2023-03-19T16:56:05;14.20;;;7.88;;
50549;SDS011;36505;52.512;13.460;2023-03-19T16:58:37;15.18;;;8.60;;
50549;SDS011;36505;52.512;13.460;2023-03-19T17:01:17;15.02;;;8.57;;
50549;SDS011;36505;52.512;13.460;2023-03-19T17:03:45;15.80;;;8.95;;